logo

United by the hobby
of model aircraft flying

Promoting safe
radio model flying

Sharing the experience
of RC flying

Dedicated to the sport of model aviation

Meeting
Venue

Third Monday Each Month
Crown Point Civic Center
101 S East Street
Crown Point, IN 46307

Read More

email:
[javascript protected email address]

View our events calendar

2019

Weather Conditions

Elev 730 ft    41.19°N  87.16°W

30.9 °F
°
m/h
Wind Variable Wind from NNE

Current Conditions

Pressure 29.78 in
Visibility 9 miles
Clouds Clear
Dew Point 27.0 °F
Humidity 85 %
Rainfall 0.00 in
 
METAR KVPZ 140456Z AUTO 00000KT 9SM CLR M01/M03 A2978 RMK AO2 SLP091 T10061028

Forecast

INFORMATION PROVIDED BY THE INDIANA STATE FORECAST - NATIONAL WEATHER SERVICE
Sunrise & Sunset
December 13, 2019
7:10 AM

4:21 PM
High 35 | Low 23°F
December 14, 2019
7:10 AM

4:21 PM
High | Low °F
 

our gallery

View All